sensor_id;sensor_type;location;lat;lon;timestamp;P1;durP1;ratioP1;P2;durP2;ratioP2
26977;SDS011;56314;48.088;11.642;2023-04-06T00:01:09;10.82;;;6.72;;
26977;SDS011;56314;48.088;11.642;2023-04-06T00:03:35;12.93;;;7.45;;
26977;SDS011;56314;48.088;11.642;2023-04-06T00:06:01;12.23;;;6.93;;
26977;SDS011;56314;48.088;11.642;2023-04-06T00:08:26;11.38;;;6.70;;
26977;SDS011;56314;48.088;11.642;2023-04-06T00:10:52;14.23;;;7.70;;
26977;SDS011;56314;48.088;11.642;2023-04-06T00:13:18;10.25;;;6.85;;
26977;SDS011;56314;48.088;11.642;2023-04-06T00:15:43;11.27;;;7.15;;
26977;SDS011;56314;48.088;11.642;2023-04-06T00:18:09;16.08;;;7.72;;
26977;SDS011;56314;48.088;11.642;2023-04-06T00:20:34;8.10;;;6.63;;
26977;SDS011;56314;48.088;11.642;2023-04-06T00:22:59;11.73;;;7.63;;
26977;SDS011;56314;48.088;11.642;2023-04-06T00:25:25;11.38;;;7.32;;
26977;SDS011;56314;48.088;11.642;2023-04-06T00:27:51;10.93;;;7.45;;
26977;SDS011;56314;48.088;11.642;2023-04-06T00:30:16;14.38;;;6.55;;
26977;SDS011;56314;48.088;11.642;2023-04-06T00:32:42;12.10;;;7.15;;
26977;SDS011;56314;48.088;11.642;2023-04-06T00:35:07;8.85;;;6.18;;
26977;SDS011;56314;48.088;11.642;2023-04-06T00:37:33;10.15;;;7.15;;
26977;SDS011;56314;48.088;11.642;2023-04-06T00:39:58;10.02;;;6.93;;
26977;SDS011;56314;48.088;11.642;2023-04-06T00:42:24;11.10;;;6.82;;
26977;SDS011;56314;48.088;11.642;2023-04-06T00:44:53;9.75;;;7.00;;
26977;SDS011;56314;48.088;11.642;2023-04-06T00:47:20;10.90;;;7.18;;
26977;SDS011;56314;48.088;11.642;2023-04-06T00:49:46;12.50;;;7.57;;
26977;SDS011;56314;48.088;11.642;2023-04-06T00:52:12;10.70;;;6.70;;
26977;SDS011;56314;48.088;11.642;2023-04-06T00:54:37;9.88;;;6.97;;
26977;SDS011;56314;48.088;11.642;2023-04-06T00:57:02;12.82;;;7.20;;
26977;SDS011;56314;48.088;11.642;2023-04-06T00:59:28;11.43;;;6.32;;
26977;SDS011;56314;48.088;11.642;2023-04-06T01:01:53;10.50;;;6.30;;
26977;SDS011;56314;48.088;11.642;2023-04-06T01:04:19;12.90;;;7.13;;
26977;SDS011;56314;48.088;11.642;2023-04-06T01:06:47;9.20;;;6.53;;
26977;SDS011;56314;48.088;11.642;2023-04-06T01:09:13;9.40;;;6.63;;
26977;SDS011;56314;48.088;11.642;2023-04-06T01:11:38;12.20;;;7.05;;
26977;SDS011;56314;48.088;11.642;2023-04-06T01:14:04;10.43;;;7.25;;
26977;SDS011;56314;48.088;11.642;2023-04-06T01:16:30;11.18;;;7.43;;
26977;SDS011;56314;48.088;11.642;2023-04-06T01:18:55;10.32;;;7.18;;
26977;SDS011;56314;48.088;11.642;2023-04-06T01:21:21;13.45;;;6.78;;
26977;SDS011;56314;48.088;11.642;2023-04-06T01:23:46;11.38;;;6.40;;
26977;SDS011;56314;48.088;11.642;2023-04-06T01:26:12;10.75;;;7.15;;
26977;SDS011;56314;48.088;11.642;2023-04-06T01:28:38;9.52;;;7.00;;
26977;SDS011;56314;48.088;11.642;2023-04-06T01:31:04;12.07;;;6.78;;
26977;SDS011;56314;48.088;11.642;2023-04-06T01:33:32;12.52;;;6.63;;
26977;SDS011;56314;48.088;11.642;2023-04-06T01:35:57;13.95;;;7.03;;
26977;SDS011;56314;48.088;11.642;2023-04-06T01:38:22;9.30;;;6.50;;
26977;SDS011;56314;48.088;11.642;2023-04-06T01:40:48;10.38;;;6.72;;
26977;SDS011;56314;48.088;11.642;2023-04-06T01:43:13;9.88;;;6.78;;
26977;SDS011;56314;48.088;11.642;2023-04-06T01:45:39;9.90;;;6.70;;
26977;SDS011;56314;48.088;11.642;2023-04-06T01:48:04;9.43;;;6.35;;
26977;SDS011;56314;48.088;11.642;2023-04-06T01:50:30;9.43;;;6.32;;
26977;SDS011;56314;48.088;11.642;2023-04-06T01:52:55;12.68;;;6.53;;
26977;SDS011;56314;48.088;11.642;2023-04-06T01:55:20;11.98;;;6.30;;
26977;SDS011;56314;48.088;11.642;2023-04-06T01:57:46;9.02;;;6.30;;
26977;SDS011;56314;48.088;11.642;2023-04-06T02:00:11;10.90;;;6.63;;
26977;SDS011;56314;48.088;11.642;2023-04-06T02:02:37;7.88;;;6.05;;
26977;SDS011;56314;48.088;11.642;2023-04-06T02:05:03;9.18;;;6.25;;
26977;SDS011;56314;48.088;11.642;2023-04-06T02:07:28;11.38;;;5.88;;
26977;SDS011;56314;48.088;11.642;2023-04-06T02:09:54;8.93;;;6.43;;
26977;SDS011;56314;48.088;11.642;2023-04-06T02:12:20;8.93;;;6.55;;
26977;SDS011;56314;48.088;11.642;2023-04-06T02:14:46;8.95;;;6.32;;
26977;SDS011;56314;48.088;11.642;2023-04-06T02:17:11;10.38;;;6.63;;
26977;SDS011;56314;48.088;11.642;2023-04-06T02:19:36;9.15;;;6.43;;
26977;SDS011;56314;48.088;11.642;2023-04-06T02:22:02;13.43;;;6.50;;
26977;SDS011;56314;48.088;11.642;2023-04-06T02:24:27;11.65;;;5.75;;
26977;SDS011;56314;48.088;11.642;2023-04-06T02:26:52;9.10;;;6.30;;
26977;SDS011;56314;48.088;11.642;2023-04-06T02:29:18;12.20;;;6.30;;
26977;SDS011;56314;48.088;11.642;2023-04-06T02:31:43;12.60;;;6.43;;
26977;SDS011;56314;48.088;11.642;2023-04-06T02:34:09;12.65;;;6.30;;
26977;SDS011;56314;48.088;11.642;2023-04-06T02:36:36;8.68;;;6.20;;
26977;SDS011;56314;48.088;11.642;2023-04-06T02:39:02;12.20;;;6.97;;
26977;SDS011;56314;48.088;11.642;2023-04-06T02:41:28;9.30;;;6.63;;
26977;SDS011;56314;48.088;11.642;2023-04-06T02:43:53;9.23;;;6.47;;
26977;SDS011;56314;48.088;11.642;2023-04-06T02:46:19;8.43;;;6.70;;
26977;SDS011;56314;48.088;11.642;2023-04-06T02:48:44;10.27;;;7.13;;
26977;SDS011;56314;48.088;11.642;2023-04-06T02:51:10;10.45;;;7.38;;
26977;SDS011;56314;48.088;11.642;2023-04-06T02:53:35;9.45;;;6.60;;
26977;SDS011;56314;48.088;11.642;2023-04-06T02:56:01;16.17;;;6.78;;
26977;SDS011;56314;48.088;11.642;2023-04-06T02:58:26;11.50;;;7.25;;
26977;SDS011;56314;48.088;11.642;2023-04-06T03:00:51;12.20;;;6.45;;
26977;SDS011;56314;48.088;11.642;2023-04-06T03:03:17;9.60;;;6.10;;
26977;SDS011;56314;48.088;11.642;2023-04-06T03:05:42;10.75;;;7.10;;
26977;SDS011;56314;48.088;11.642;2023-04-06T03:08:08;11.73;;;6.88;;
26977;SDS011;56314;48.088;11.642;2023-04-06T03:10:33;13.82;;;6.78;;
26977;SDS011;56314;48.088;11.642;2023-04-06T03:12:58;8.77;;;6.20;;
26977;SDS011;56314;48.088;11.642;2023-04-06T03:15:24;9.35;;;7.45;;
26977;SDS011;56314;48.088;11.642;2023-04-06T03:17:49;9.98;;;6.63;;
26977;SDS011;56314;48.088;11.642;2023-04-06T03:20:15;12.23;;;7.32;;
26977;SDS011;56314;48.088;11.642;2023-04-06T03:22:40;12.85;;;7.15;;
26977;SDS011;56314;48.088;11.642;2023-04-06T03:25:06;15.50;;;7.20;;
26977;SDS011;56314;48.088;11.642;2023-04-06T03:27:31;9.18;;;6.70;;
26977;SDS011;56314;48.088;11.642;2023-04-06T03:29:57;9.40;;;7.30;;
26977;SDS011;56314;48.088;11.642;2023-04-06T03:32:23;13.55;;;8.23;;
26977;SDS011;56314;48.088;11.642;2023-04-06T03:34:48;10.43;;;6.93;;
26977;SDS011;56314;48.088;11.642;2023-04-06T03:37:13;8.63;;;6.60;;
26977;SDS011;56314;48.088;11.642;2023-04-06T03:39:39;10.70;;;7.00;;
26977;SDS011;56314;48.088;11.642;2023-04-06T03:42:05;11.02;;;7.43;;
26977;SDS011;56314;48.088;11.642;2023-04-06T03:44:30;12.18;;;7.38;;
26977;SDS011;56314;48.088;11.642;2023-04-06T03:46:56;9.95;;;7.20;;
26977;SDS011;56314;48.088;11.642;2023-04-06T03:49:22;10.35;;;6.88;;
26977;SDS011;56314;48.088;11.642;2023-04-06T03:51:47;8.60;;;6.60;;
26977;SDS011;56314;48.088;11.642;2023-04-06T03:54:13;13.05;;;7.00;;
26977;SDS011;56314;48.088;11.642;2023-04-06T03:56:38;9.70;;;6.88;;
26977;SDS011;56314;48.088;11.642;2023-04-06T03:59:03;10.63;;;7.30;;
26977;SDS011;56314;48.088;11.642;2023-04-06T04:01:29;11.05;;;7.10;;
26977;SDS011;56314;48.088;11.642;2023-04-06T04:03:54;11.68;;;7.03;;
26977;SDS011;56314;48.088;11.642;2023-04-06T04:06:20;13.00;;;7.80;;
26977;SDS011;56314;48.088;11.642;2023-04-06T04:08:45;11.57;;;7.47;;
26977;SDS011;56314;48.088;11.642;2023-04-06T04:11:10;9.73;;;6.60;;
26977;SDS011;56314;48.088;11.642;2023-04-06T04:13:36;11.18;;;6.95;;
26977;SDS011;56314;48.088;11.642;2023-04-06T04:16:01;11.95;;;8.32;;
26977;SDS011;56314;48.088;11.642;2023-04-06T04:18:27;13.85;;;6.15;;
26977;SDS011;56314;48.088;11.642;2023-04-06T04:20:52;9.70;;;6.85;;
26977;SDS011;56314;48.088;11.642;2023-04-06T04:23:17;11.25;;;7.40;;
26977;SDS011;56314;48.088;11.642;2023-04-06T04:25:43;12.18;;;6.85;;
26977;SDS011;56314;48.088;11.642;2023-04-06T04:28:08;8.73;;;7.07;;
26977;SDS011;56314;48.088;11.642;2023-04-06T04:30:34;10.88;;;6.85;;
26977;SDS011;56314;48.088;11.642;2023-04-06T04:32:59;9.05;;;6.88;;
26977;SDS011;56314;48.088;11.642;2023-04-06T04:35:26;12.43;;;7.22;;
26977;SDS011;56314;48.088;11.642;2023-04-06T04:37:52;11.13;;;7.25;;
26977;SDS011;56314;48.088;11.642;2023-04-06T04:40:18;11.15;;;7.35;;
26977;SDS011;56314;48.088;11.642;2023-04-06T04:42:43;13.82;;;7.60;;
26977;SDS011;56314;48.088;11.642;2023-04-06T04:45:09;11.18;;;7.95;;
26977;SDS011;56314;48.088;11.642;2023-04-06T04:47:35;11.13;;;7.25;;
26977;SDS011;56314;48.088;11.642;2023-04-06T04:50:00;10.10;;;6.85;;
26977;SDS011;56314;48.088;11.642;2023-04-06T04:52:25;12.32;;;7.38;;
26977;SDS011;56314;48.088;11.642;2023-04-06T04:54:51;12.32;;;7.03;;
26977;SDS011;56314;48.088;11.642;2023-04-06T04:57:16;14.00;;;7.47;;
26977;SDS011;56314;48.088;11.642;2023-04-06T04:59:42;11.15;;;7.28;;
26977;SDS011;56314;48.088;11.642;2023-04-06T05:02:08;10.80;;;7.22;;
26977;SDS011;56314;48.088;11.642;2023-04-06T05:04:33;9.70;;;6.80;;
26977;SDS011;56314;48.088;11.642;2023-04-06T05:07:16;10.00;;;7.00;;
26977;SDS011;56314;48.088;11.642;2023-04-06T05:09:43;13.57;;;7.35;;
26977;SDS011;56314;48.088;11.642;2023-04-06T05:12:09;12.73;;;6.65;;
26977;SDS011;56314;48.088;11.642;2023-04-06T05:14:35;9.85;;;7.32;;
26977;SDS011;56314;48.088;11.642;2023-04-06T05:17:00;13.18;;;7.25;;
26977;SDS011;56314;48.088;11.642;2023-04-06T05:19:26;16.15;;;7.40;;
26977;SDS011;56314;48.088;11.642;2023-04-06T05:21:51;11.32;;;7.65;;
26977;SDS011;56314;48.088;11.642;2023-04-06T05:24:17;12.75;;;7.47;;
26977;SDS011;56314;48.088;11.642;2023-04-06T05:26:42;11.18;;;6.90;;
26977;SDS011;56314;48.088;11.642;2023-04-06T05:29:07;15.40;;;7.82;;
26977;SDS011;56314;48.088;11.642;2023-04-06T05:31:33;11.13;;;7.53;;
26977;SDS011;56314;48.088;11.642;2023-04-06T05:33:58;14.70;;;6.75;;
26977;SDS011;56314;48.088;11.642;2023-04-06T05:36:24;13.00;;;7.28;;
26977;SDS011;56314;48.088;11.642;2023-04-06T05:38:49;15.20;;;6.75;;
26977;SDS011;56314;48.088;11.642;2023-04-06T05:41:16;8.45;;;6.20;;
26977;SDS011;56314;48.088;11.642;2023-04-06T05:43:41;9.38;;;6.65;;
26977;SDS011;56314;48.088;11.642;2023-04-06T05:46:07;10.98;;;6.53;;
26977;SDS011;56314;48.088;11.642;2023-04-06T05:48:32;10.23;;;6.95;;
26977;SDS011;56314;48.088;11.642;2023-04-06T05:50:57;11.80;;;7.10;;
26977;SDS011;56314;48.088;11.642;2023-04-06T05:53:23;12.23;;;6.75;;
26977;SDS011;56314;48.088;11.642;2023-04-06T05:55:51;13.38;;;7.20;;
26977;SDS011;56314;48.088;11.642;2023-04-06T05:58:16;10.60;;;6.80;;
26977;SDS011;56314;48.088;11.642;2023-04-06T06:00:42;10.68;;;6.72;;
26977;SDS011;56314;48.088;11.642;2023-04-06T06:03:07;10.52;;;6.68;;
26977;SDS011;56314;48.088;11.642;2023-04-06T06:05:33;10.25;;;7.13;;
26977;SDS011;56314;48.088;11.642;2023-04-06T06:07:59;11.32;;;6.70;;
26977;SDS011;56314;48.088;11.642;2023-04-06T06:10:27;11.23;;;6.88;;
26977;SDS011;56314;48.088;11.642;2023-04-06T06:12:52;12.18;;;6.57;;
26977;SDS011;56314;48.088;11.642;2023-04-06T06:15:18;11.05;;;6.70;;
26977;SDS011;56314;48.088;11.642;2023-04-06T06:17:43;13.80;;;5.90;;
26977;SDS011;56314;48.088;11.642;2023-04-06T06:20:09;12.48;;;6.82;;
26977;SDS011;56314;48.088;11.642;2023-04-06T06:22:35;10.55;;;7.07;;
26977;SDS011;56314;48.088;11.642;2023-04-06T06:25:00;12.13;;;6.32;;
26977;SDS011;56314;48.088;11.642;2023-04-06T06:27:25;11.52;;;6.45;;
26977;SDS011;56314;48.088;11.642;2023-04-06T06:29:51;9.30;;;6.50;;
26977;SDS011;56314;48.088;11.642;2023-04-06T06:32:16;8.70;;;6.38;;
26977;SDS011;56314;48.088;11.642;2023-04-06T06:34:42;10.18;;;6.43;;
26977;SDS011;56314;48.088;11.642;2023-04-06T06:37:07;8.77;;;6.60;;
26977;SDS011;56314;48.088;11.642;2023-04-06T06:39:33;8.07;;;6.38;;
26977;SDS011;56314;48.088;11.642;2023-04-06T06:41:58;10.68;;;6.32;;
26977;SDS011;56314;48.088;11.642;2023-04-06T06:44:26;12.02;;;6.93;;
26977;SDS011;56314;48.088;11.642;2023-04-06T06:46:52;11.02;;;6.72;;
26977;SDS011;56314;48.088;11.642;2023-04-06T06:49:17;18.65;;;7.45;;
26977;SDS011;56314;48.088;11.642;2023-04-06T06:51:43;13.70;;;8.32;;
26977;SDS011;56314;48.088;11.642;2023-04-06T06:54:09;13.85;;;8.02;;
26977;SDS011;56314;48.088;11.642;2023-04-06T06:56:34;12.35;;;7.20;;
26977;SDS011;56314;48.088;11.642;2023-04-06T06:59:02;11.88;;;7.25;;
26977;SDS011;56314;48.088;11.642;2023-04-06T07:01:27;14.20;;;7.63;;
26977;SDS011;56314;48.088;11.642;2023-04-06T07:03:52;13.23;;;7.28;;
26977;SDS011;56314;48.088;11.642;2023-04-06T07:06:18;14.63;;;8.43;;
26977;SDS011;56314;48.088;11.642;2023-04-06T07:08:43;10.30;;;6.65;;
26977;SDS011;56314;48.088;11.642;2023-04-06T07:11:08;13.88;;;8.20;;
26977;SDS011;56314;48.088;11.642;2023-04-06T07:13:34;13.88;;;7.75;;
26977;SDS011;56314;48.088;11.642;2023-04-06T07:15:59;12.27;;;7.40;;
26977;SDS011;56314;48.088;11.642;2023-04-06T07:18:24;16.30;;;7.10;;
26977;SDS011;56314;48.088;11.642;2023-04-06T07:20:50;11.73;;;6.93;;
26977;SDS011;56314;48.088;11.642;2023-04-06T07:23:15;10.85;;;7.57;;
26977;SDS011;56314;48.088;11.642;2023-04-06T07:25:41;13.32;;;7.07;;
26977;SDS011;56314;48.088;11.642;2023-04-06T07:28:07;14.82;;;7.28;;
26977;SDS011;56314;48.088;11.642;2023-04-06T07:30:32;9.18;;;6.97;;
26977;SDS011;56314;48.088;11.642;2023-04-06T07:32:57;11.57;;;7.78;;
26977;SDS011;56314;48.088;11.642;2023-04-06T07:35:24;10.63;;;7.82;;
26977;SDS011;56314;48.088;11.642;2023-04-06T07:37:51;8.70;;;7.10;;
26977;SDS011;56314;48.088;11.642;2023-04-06T07:40:16;11.48;;;7.22;;
26977;SDS011;56314;48.088;11.642;2023-04-06T07:42:43;9.43;;;6.93;;
26977;SDS011;56314;48.088;11.642;2023-04-06T07:45:08;9.35;;;6.85;;
26977;SDS011;56314;48.088;11.642;2023-04-06T07:47:34;10.18;;;6.78;;
26977;SDS011;56314;48.088;11.642;2023-04-06T07:49:59;10.30;;;7.18;;
26977;SDS011;56314;48.088;11.642;2023-04-06T07:52:25;11.13;;;6.80;;
26977;SDS011;56314;48.088;11.642;2023-04-06T07:54:50;11.75;;;7.75;;
26977;SDS011;56314;48.088;11.642;2023-04-06T07:57:16;9.77;;;7.13;;
26977;SDS011;56314;48.088;11.642;2023-04-06T07:59:42;10.13;;;6.78;;
26977;SDS011;56314;48.088;11.642;2023-04-06T08:02:07;9.98;;;7.30;;
26977;SDS011;56314;48.088;11.642;2023-04-06T08:04:32;9.27;;;6.72;;
26977;SDS011;56314;48.088;11.642;2023-04-06T08:06:58;8.38;;;6.97;;
26977;SDS011;56314;48.088;11.642;2023-04-06T08:09:23;9.32;;;7.38;;
26977;SDS011;56314;48.088;11.642;2023-04-06T08:11:48;8.73;;;6.70;;
26977;SDS011;56314;48.088;11.642;2023-04-06T08:14:14;9.35;;;6.50;;
26977;SDS011;56314;48.088;11.642;2023-04-06T08:16:41;9.00;;;6.75;;
26977;SDS011;56314;48.088;11.642;2023-04-06T08:19:06;9.48;;;6.93;;
26977;SDS011;56314;48.088;11.642;2023-04-06T08:21:34;8.05;;;7.25;;
26977;SDS011;56314;48.088;11.642;2023-04-06T08:24:03;9.88;;;6.60;;
26977;SDS011;56314;48.088;11.642;2023-04-06T08:26:28;9.70;;;7.70;;
26977;SDS011;56314;48.088;11.642;2023-04-06T08:28:54;9.55;;;7.68;;
26977;SDS011;56314;48.088;11.642;2023-04-06T08:31:20;9.27;;;7.65;;
26977;SDS011;56314;48.088;11.642;2023-04-06T08:33:45;9.75;;;7.30;;
26977;SDS011;56314;48.088;11.642;2023-04-06T08:36:11;13.68;;;8.07;;
26977;SDS011;56314;48.088;11.642;2023-04-06T08:38:37;11.48;;;7.20;;
26977;SDS011;56314;48.088;11.642;2023-04-06T08:41:10;9.88;;;7.38;;
26977;SDS011;56314;48.088;11.642;2023-04-06T08:43:43;8.90;;;7.70;;
26977;SDS011;56314;48.088;11.642;2023-04-06T08:46:11;13.30;;;7.30;;
26977;SDS011;56314;48.088;11.642;2023-04-06T08:48:40;9.95;;;7.72;;
26977;SDS011;56314;48.088;11.642;2023-04-06T08:51:07;9.55;;;8.00;;
26977;SDS011;56314;48.088;11.642;2023-04-06T08:53:33;10.70;;;7.35;;
26977;SDS011;56314;48.088;11.642;2023-04-06T08:55:59;9.20;;;7.65;;
26977;SDS011;56314;48.088;11.642;2023-04-06T08:58:26;12.82;;;7.13;;
26977;SDS011;56314;48.088;11.642;2023-04-06T09:00:55;10.05;;;7.97;;
26977;SDS011;56314;48.088;11.642;2023-04-06T09:03:20;9.95;;;7.47;;
26977;SDS011;56314;48.088;11.642;2023-04-06T09:05:46;11.23;;;8.02;;
26977;SDS011;56314;48.088;11.642;2023-04-06T09:08:12;9.38;;;7.75;;
26977;SDS011;56314;48.088;11.642;2023-04-06T09:10:40;9.00;;;6.90;;
26977;SDS011;56314;48.088;11.642;2023-04-06T09:13:06;8.10;;;7.25;;
26977;SDS011;56314;48.088;11.642;2023-04-06T09:15:32;10.80;;;7.93;;
26977;SDS011;56314;48.088;11.642;2023-04-06T09:17:58;8.05;;;7.15;;
26977;SDS011;56314;48.088;11.642;2023-04-06T09:20:25;10.63;;;8.00;;
26977;SDS011;56314;48.088;11.642;2023-04-06T09:22:51;8.15;;;7.32;;
26977;SDS011;56314;48.088;11.642;2023-04-06T09:25:20;9.75;;;7.75;;
26977;SDS011;56314;48.088;11.642;2023-04-06T09:27:48;9.68;;;7.75;;
26977;SDS011;56314;48.088;11.642;2023-04-06T09:30:15;10.05;;;8.10;;
26977;SDS011;56314;48.088;11.642;2023-04-06T09:32:48;9.73;;;8.55;;
26977;SDS011;56314;48.088;11.642;2023-04-06T09:35:17;10.13;;;8.10;;
26977;SDS011;56314;48.088;11.642;2023-04-06T09:37:45;10.15;;;7.50;;
26977;SDS011;56314;48.088;11.642;2023-04-06T09:40:12;12.32;;;8.52;;
26977;SDS011;56314;48.088;11.642;2023-04-06T09:42:40;11.77;;;9.70;;
26977;SDS011;56314;48.088;11.642;2023-04-06T09:45:06;10.77;;;8.70;;
26977;SDS011;56314;48.088;11.642;2023-04-06T09:47:32;8.93;;;7.93;;
26977;SDS011;56314;48.088;11.642;2023-04-06T09:50:00;12.05;;;7.97;;
26977;SDS011;56314;48.088;11.642;2023-04-06T09:52:32;10.00;;;8.32;;
26977;SDS011;56314;48.088;11.642;2023-04-06T09:55:03;10.25;;;8.32;;
26977;SDS011;56314;48.088;11.642;2023-04-06T09:57:35;11.48;;;7.97;;
26977;SDS011;56314;48.088;11.642;2023-04-06T10:00:09;10.98;;;7.28;;
26977;SDS011;56314;48.088;11.642;2023-04-06T10:08:07;11.00;;;8.32;;
26977;SDS011;56314;48.088;11.642;2023-04-06T10:10:35;12.50;;;8.90;;
26977;SDS011;56314;48.088;11.642;2023-04-06T10:13:00;11.95;;;8.13;;
26977;SDS011;56314;48.088;11.642;2023-04-06T10:15:28;11.02;;;8.30;;
26977;SDS011;56314;48.088;11.642;2023-04-06T10:17:54;12.35;;;8.98;;
26977;SDS011;56314;48.088;11.642;2023-04-06T10:20:22;10.13;;;8.40;;
26977;SDS011;56314;48.088;11.642;2023-04-06T10:25:55;10.40;;;8.32;;
26977;SDS011;56314;48.088;11.642;2023-04-06T10:28:22;11.95;;;8.40;;
26977;SDS011;56314;48.088;11.642;2023-04-06T10:30:48;9.45;;;8.38;;
26977;SDS011;56314;48.088;11.642;2023-04-06T10:33:14;14.43;;;8.55;;
26977;SDS011;56314;48.088;11.642;2023-04-06T10:35:41;12.10;;;7.68;;
26977;SDS011;56314;48.088;11.642;2023-04-06T10:38:06;11.63;;;8.70;;
26977;SDS011;56314;48.088;11.642;2023-04-06T10:40:34;9.80;;;7.78;;
26977;SDS011;56314;48.088;11.642;2023-04-06T10:43:08;9.63;;;8.13;;
26977;SDS011;56314;48.088;11.642;2023-04-06T10:45:36;11.43;;;7.72;;
26977;SDS011;56314;48.088;11.642;2023-04-06T10:48:12;9.57;;;7.60;;
26977;SDS011;56314;48.088;11.642;2023-04-06T10:50:39;9.20;;;7.75;;
26977;SDS011;56314;48.088;11.642;2023-04-06T10:53:05;9.50;;;7.68;;
26977;SDS011;56314;48.088;11.642;2023-04-06T10:55:31;12.75;;;8.45;;
26977;SDS011;56314;48.088;11.642;2023-04-06T10:57:57;12.82;;;8.60;;
26977;SDS011;56314;48.088;11.642;2023-04-06T11:00:22;9.23;;;8.32;;
26977;SDS011;56314;48.088;11.642;2023-04-06T11:02:48;12.88;;;9.30;;
26977;SDS011;56314;48.088;11.642;2023-04-06T11:05:14;10.68;;;8.20;;
26977;SDS011;56314;48.088;11.642;2023-04-06T11:07:40;9.98;;;8.73;;
26977;SDS011;56314;48.088;11.642;2023-04-06T11:10:07;10.98;;;8.27;;
26977;SDS011;56314;48.088;11.642;2023-04-06T11:12:33;12.48;;;8.48;;
26977;SDS011;56314;48.088;11.642;2023-04-06T11:15:02;9.50;;;8.13;;
26977;SDS011;56314;48.088;11.642;2023-04-06T11:17:32;13.82;;;8.25;;
26977;SDS011;56314;48.088;11.642;2023-04-06T11:19:59;11.13;;;7.65;;
26977;SDS011;56314;48.088;11.642;2023-04-06T11:22:25;10.77;;;8.40;;
26977;SDS011;56314;48.088;11.642;2023-04-06T11:24:51;9.57;;;7.85;;
26977;SDS011;56314;48.088;11.642;2023-04-06T11:27:17;10.30;;;7.38;;
26977;SDS011;56314;48.088;11.642;2023-04-06T11:29:44;8.77;;;7.82;;
26977;SDS011;56314;48.088;11.642;2023-04-06T11:32:19;9.48;;;8.07;;
26977;SDS011;56314;48.088;11.642;2023-04-06T11:34:46;13.88;;;8.35;;
26977;SDS011;56314;48.088;11.642;2023-04-06T11:37:13;8.10;;;7.18;;
26977;SDS011;56314;48.088;11.642;2023-04-06T11:39:39;10.60;;;8.25;;
26977;SDS011;56314;48.088;11.642;2023-04-06T11:42:06;8.88;;;7.43;;
26977;SDS011;56314;48.088;11.642;2023-04-06T11:47:05;11.23;;;7.18;;
26977;SDS011;56314;48.088;11.642;2023-04-06T11:49:32;9.18;;;7.80;;
26977;SDS011;56314;48.088;11.642;2023-04-06T11:51:59;9.18;;;7.50;;
26977;SDS011;56314;48.088;11.642;2023-04-06T11:54:44;11.98;;;8.80;;
26977;SDS011;56314;48.088;11.642;2023-04-06T11:57:09;10.27;;;8.45;;
26977;SDS011;56314;48.088;11.642;2023-04-06T11:59:35;8.43;;;7.35;;
26977;SDS011;56314;48.088;11.642;2023-04-06T12:02:01;8.70;;;7.80;;
26977;SDS011;56314;48.088;11.642;2023-04-06T12:04:27;10.50;;;8.50;;
26977;SDS011;56314;48.088;11.642;2023-04-06T12:06:53;10.43;;;8.77;;
26977;SDS011;56314;48.088;11.642;2023-04-06T12:09:19;8.68;;;7.78;;
26977;SDS011;56314;48.088;11.642;2023-04-06T12:11:44;7.93;;;7.20;;
26977;SDS011;56314;48.088;11.642;2023-04-06T12:14:10;10.00;;;8.02;;
26977;SDS011;56314;48.088;11.642;2023-04-06T12:16:36;10.82;;;6.72;;
26977;SDS011;56314;48.088;11.642;2023-04-06T12:19:01;10.27;;;6.93;;
26977;SDS011;56314;48.088;11.642;2023-04-06T12:21:27;11.23;;;6.95;;
26977;SDS011;56314;48.088;11.642;2023-04-06T12:23:53;10.10;;;7.07;;
26977;SDS011;56314;48.088;11.642;2023-04-06T12:26:19;11.32;;;7.10;;
26977;SDS011;56314;48.088;11.642;2023-04-06T12:28:45;9.13;;;7.03;;
26977;SDS011;56314;48.088;11.642;2023-04-06T12:31:17;7.93;;;6.97;;
26977;SDS011;56314;48.088;11.642;2023-04-06T12:33:43;8.10;;;6.97;;
26977;SDS011;56314;48.088;11.642;2023-04-06T12:36:14;10.05;;;7.80;;
26977;SDS011;56314;48.088;11.642;2023-04-06T12:38:43;9.95;;;7.88;;
26977;SDS011;56314;48.088;11.642;2023-04-06T12:41:12;7.47;;;6.60;;
26977;SDS011;56314;48.088;11.642;2023-04-06T12:43:39;7.22;;;6.50;;
26977;SDS011;56314;48.088;11.642;2023-04-06T12:46:04;9.15;;;6.90;;
26977;SDS011;56314;48.088;11.642;2023-04-06T12:48:30;9.98;;;6.75;;
26977;SDS011;56314;48.088;11.642;2023-04-06T12:53:25;9.70;;;7.35;;
26977;SDS011;56314;48.088;11.642;2023-04-06T12:55:51;8.48;;;7.00;;
26977;SDS011;56314;48.088;11.642;2023-04-06T12:58:18;8.73;;;6.90;;
26977;SDS011;56314;48.088;11.642;2023-04-06T13:00:44;11.48;;;7.40;;
26977;SDS011;56314;48.088;11.642;2023-04-06T13:03:10;7.22;;;6.13;;
26977;SDS011;56314;48.088;11.642;2023-04-06T13:05:35;7.85;;;6.45;;
26977;SDS011;56314;48.088;11.642;2023-04-06T13:08:01;9.55;;;6.63;;
26977;SDS011;56314;48.088;11.642;2023-04-06T13:10:26;8.27;;;6.80;;
26977;SDS011;56314;48.088;11.642;2023-04-06T13:12:52;8.45;;;6.10;;
26977;SDS011;56314;48.088;11.642;2023-04-06T13:15:17;8.02;;;6.60;;
26977;SDS011;56314;48.088;11.642;2023-04-06T13:17:43;8.25;;;6.22;;
26977;SDS011;56314;48.088;11.642;2023-04-06T13:20:08;8.95;;;6.65;;
26977;SDS011;56314;48.088;11.642;2023-04-06T13:22:34;7.53;;;6.25;;
26977;SDS011;56314;48.088;11.642;2023-04-06T13:25:00;7.28;;;6.25;;
26977;SDS011;56314;48.088;11.642;2023-04-06T13:27:26;8.35;;;7.47;;
26977;SDS011;56314;48.088;11.642;2023-04-06T13:29:52;7.90;;;6.43;;
26977;SDS011;56314;48.088;11.642;2023-04-06T13:32:18;9.20;;;6.47;;
26977;SDS011;56314;48.088;11.642;2023-04-06T13:34:43;7.25;;;6.47;;
26977;SDS011;56314;48.088;11.642;2023-04-06T13:37:11;6.90;;;6.20;;
26977;SDS011;56314;48.088;11.642;2023-04-06T13:39:37;7.07;;;6.22;;
26977;SDS011;56314;48.088;11.642;2023-04-06T13:42:03;8.73;;;6.95;;
26977;SDS011;56314;48.088;11.642;2023-04-06T13:44:28;10.63;;;8.00;;
26977;SDS011;56314;48.088;11.642;2023-04-06T13:46:54;9.38;;;6.78;;
26977;SDS011;56314;48.088;11.642;2023-04-06T13:49:19;9.43;;;6.93;;
26977;SDS011;56314;48.088;11.642;2023-04-06T13:51:45;9.30;;;6.30;;
26977;SDS011;56314;48.088;11.642;2023-04-06T13:54:10;7.50;;;6.72;;
26977;SDS011;56314;48.088;11.642;2023-04-06T13:56:35;8.77;;;7.00;;
26977;SDS011;56314;48.088;11.642;2023-04-06T13:59:02;9.82;;;6.70;;
26977;SDS011;56314;48.088;11.642;2023-04-06T14:01:28;8.85;;;7.30;;
26977;SDS011;56314;48.088;11.642;2023-04-06T14:03:53;9.63;;;6.63;;
26977;SDS011;56314;48.088;11.642;2023-04-06T14:06:19;8.27;;;6.80;;
26977;SDS011;56314;48.088;11.642;2023-04-06T14:08:44;9.10;;;7.30;;
26977;SDS011;56314;48.088;11.642;2023-04-06T14:11:13;10.52;;;7.38;;
26977;SDS011;56314;48.088;11.642;2023-04-06T14:13:40;8.45;;;6.53;;
26977;SDS011;56314;48.088;11.642;2023-04-06T14:16:05;8.45;;;6.28;;
26977;SDS011;56314;48.088;11.642;2023-04-06T14:18:32;11.25;;;6.75;;
26977;SDS011;56314;48.088;11.642;2023-04-06T14:20:59;8.00;;;5.68;;
26977;SDS011;56314;48.088;11.642;2023-04-06T14:23:25;9.43;;;6.30;;
26977;SDS011;56314;48.088;11.642;2023-04-06T14:26:00;7.25;;;6.10;;
26977;SDS011;56314;48.088;11.642;2023-04-06T14:28:29;10.48;;;6.88;;
26977;SDS011;56314;48.088;11.642;2023-04-06T14:30:55;7.57;;;5.93;;
26977;SDS011;56314;48.088;11.642;2023-04-06T14:33:21;8.80;;;6.65;;